createdAt,value
2023-01-03T00:00:19.013Z,9.18
2023-01-03T00:02:45.793Z,9.31
2023-01-03T00:05:12.452Z,9.44
2023-01-03T00:07:39.052Z,9.48
2023-01-03T00:10:09.959Z,9.39
2023-01-03T00:12:37.870Z,9.41
2023-01-03T00:15:04.911Z,9.43
2023-01-03T00:17:31.915Z,9.53
2023-01-03T00:19:58.576Z,9.40
2023-01-03T00:22:25.463Z,9.26
2023-01-03T00:24:53.181Z,9.22
2023-01-03T00:27:19.858Z,9.40
2023-01-03T00:29:46.508Z,9.25
2023-01-03T00:32:13.801Z,9.34
2023-01-03T00:34:43.013Z,9.46
2023-01-03T00:37:09.666Z,9.35
2023-01-03T00:39:36.388Z,9.21
2023-01-03T00:42:03.047Z,9.14
2023-01-03T00:44:29.664Z,9.25
2023-01-03T00:46:56.288Z,9.20
2023-01-03T00:49:23.053Z,9.22
2023-01-03T00:51:49.817Z,9.29
2023-01-03T00:54:16.580Z,9.27
2023-01-03T00:56:45.558Z,9.22
2023-01-03T00:59:13.709Z,9.19
2023-01-03T01:01:46.764Z,9.11
2023-01-03T01:04:19.422Z,9.22
2023-01-03T01:06:58.429Z,9.22
2023-01-03T01:09:37.300Z,9.30
2023-01-03T01:12:05.604Z,9.21
2023-01-03T01:14:33.794Z,9.24
2023-01-03T01:17:03.523Z,9.25
2023-01-03T01:19:33.032Z,9.29
2023-01-03T01:21:59.853Z,9.37
2023-01-03T01:24:26.885Z,9.40
2023-01-03T01:26:53.902Z,9.51
2023-01-03T01:29:21.168Z,9.68
2023-01-03T01:31:48.436Z,9.74
2023-01-03T01:34:15.934Z,9.81
2023-01-03T01:36:43.720Z,9.75
2023-01-03T01:39:16.152Z,9.88
2023-01-03T01:42:02.765Z,9.97
2023-01-03T01:44:48.211Z,10.06
2023-01-03T01:47:33.253Z,10.23
2023-01-03T01:50:15.031Z,10.15
2023-01-03T01:52:50.623Z,10.26
2023-01-03T01:55:21.405Z,10.33
2023-01-03T01:57:48.543Z,10.38
2023-01-03T02:00:15.733Z,10.34
2023-01-03T02:02:44.882Z,10.35
2023-01-03T02:05:12.136Z,10.34
2023-01-03T02:07:39.614Z,10.25
2023-01-03T02:10:07.476Z,10.45
2023-01-03T02:13:08.086Z,10.52
2023-01-03T02:15:53.827Z,10.58
2023-01-03T02:18:23.485Z,10.60
2023-01-03T02:21:20.776Z,10.85
2023-01-03T02:24:23.514Z,11.04
2023-01-03T02:27:04.949Z,10.91
2023-01-03T02:29:49.452Z,11.13
2023-01-03T02:32:23.977Z,10.96
2023-01-03T02:34:59.421Z,11.08
2023-01-03T02:37:36.585Z,11.06
2023-01-03T02:40:20.548Z,11.00
2023-01-03T02:42:58.507Z,10.72
2023-01-03T02:45:52.669Z,10.77
2023-01-03T02:48:41.056Z,10.68
2023-01-03T02:51:17.733Z,10.76
2023-01-03T02:53:47.513Z,10.94
2023-01-03T02:56:21.357Z,11.02
2023-01-03T02:58:53.752Z,10.89
2023-01-03T03:01:20.912Z,10.90
2023-01-03T03:03:48.187Z,10.89
2023-01-03T03:06:14.771Z,10.96
2023-01-03T03:08:45.554Z,11.01
2023-01-03T03:11:31.868Z,11.04
2023-01-03T03:14:43.735Z,11.13
2023-01-03T03:17:17.839Z,10.83
2023-01-03T03:20:06.468Z,10.63
2023-01-03T03:22:58.919Z,10.50
2023-01-03T03:25:30.946Z,10.66
2023-01-03T03:28:19.733Z,10.88
2023-01-03T03:30:51.138Z,10.75
2023-01-03T03:33:19.826Z,10.99
2023-01-03T03:36:08.160Z,11.05
2023-01-03T03:38:42.098Z,11.18
2023-01-03T03:41:36.631Z,11.19
2023-01-03T03:44:41.817Z,11.29
2023-01-03T03:47:40.905Z,11.35
2023-01-03T03:50:10.966Z,11.40
2023-01-03T03:52:40.052Z,11.40
2023-01-03T03:55:21.696Z,11.47
2023-01-03T03:58:03.696Z,11.37
2023-01-03T04:00:33.042Z,11.46
2023-01-03T04:03:02.591Z,11.46
2023-01-03T04:05:34.686Z,11.46
2023-01-03T04:08:01.306Z,11.42
2023-01-03T04:10:32.563Z,11.46
2023-01-03T04:13:02.257Z,11.47
2023-01-03T04:15:28.848Z,11.43
2023-01-03T04:17:55.451Z,11.46
2023-01-03T04:20:22.023Z,11.50
2023-01-03T04:22:48.674Z,11.35
2023-01-03T04:25:15.324Z,11.27
2023-01-03T04:27:41.931Z,11.11
2023-01-03T04:30:09.040Z,11.10
2023-01-03T04:32:35.625Z,10.91
2023-01-03T04:35:02.212Z,10.11
2023-01-03T04:37:28.818Z,9.79
2023-01-03T04:39:55.418Z,9.83
2023-01-03T04:42:40.807Z,9.99
2023-01-03T04:45:08.187Z,10.22
2023-01-03T04:47:34.868Z,10.33
2023-01-03T04:50:01.462Z,10.59
2023-01-03T04:52:29.374Z,10.70
2023-01-03T04:54:55.968Z,10.86
2023-01-03T04:57:22.625Z,10.98
2023-01-03T04:59:49.248Z,10.75
2023-01-03T05:02:15.959Z,10.86
2023-01-03T05:04:42.799Z,11.04
2023-01-03T05:07:09.467Z,11.11
2023-01-03T05:09:36.052Z,11.19
2023-01-03T05:12:02.684Z,11.18
2023-01-03T05:14:29.424Z,11.12
2023-01-03T05:16:56.054Z,11.07
2023-01-03T05:19:22.755Z,11.23
2023-01-03T05:22:07.782Z,11.18
2023-01-03T05:24:52.943Z,11.18
2023-01-03T05:27:19.704Z,11.15
2023-01-03T05:29:52.207Z,11.16
2023-01-03T05:32:18.888Z,11.19
2023-01-03T05:34:45.493Z,11.23
2023-01-03T05:37:12.507Z,11.27
2023-01-03T05:39:39.173Z,11.30
2023-01-03T05:42:05.908Z,11.37
2023-01-03T05:44:34.074Z,11.32
2023-01-03T05:47:03.465Z,11.23
2023-01-03T05:49:30.185Z,11.30
2023-01-03T05:51:57.014Z,11.34
2023-01-03T05:54:23.685Z,11.38
2023-01-03T05:56:51.335Z,11.28
2023-01-03T05:59:18.947Z,11.31
2023-01-03T06:01:45.695Z,11.35
2023-01-03T06:04:12.401Z,11.32
2023-01-03T06:06:39.013Z,11.21
2023-01-03T06:09:05.846Z,11.11
2023-01-03T06:11:32.485Z,11.12
2023-01-03T06:13:59.103Z,10.93
2023-01-03T06:16:44.530Z,10.81
2023-01-03T06:19:12.003Z,10.94
2023-01-03T06:21:38.705Z,10.49
2023-01-03T06:24:05.657Z,10.19
2023-01-03T06:26:32.401Z,10.22
2023-01-03T06:28:59.351Z,10.64
2023-01-03T06:31:26.190Z,10.55
2023-01-03T06:33:52.944Z,10.78
2023-01-03T06:36:21.693Z,10.87
2023-01-03T06:38:48.864Z,10.90
2023-01-03T06:41:17.082Z,10.93
2023-01-03T06:43:44.403Z,10.90
2023-01-03T06:46:31.548Z,10.80
2023-01-03T06:49:17.714Z,10.78
2023-01-03T06:52:05.145Z,10.88
2023-01-03T06:54:34.064Z,10.98
2023-01-03T06:57:01.212Z,10.95
2023-01-03T06:59:28.036Z,10.95
2023-01-03T07:01:55.174Z,10.83
2023-01-03T07:04:23.551Z,10.90
2023-01-03T07:06:50.619Z,10.85
2023-01-03T07:09:17.757Z,10.90
2023-01-03T07:11:44.658Z,10.90
2023-01-03T07:14:11.728Z,10.91
2023-01-03T07:16:44.141Z,10.87
2023-01-03T07:19:18.909Z,10.93
2023-01-03T07:21:46.380Z,10.81
2023-01-03T07:24:15.146Z,10.88
2023-01-03T07:26:41.870Z,10.90
2023-01-03T07:29:10.418Z,10.89
2023-01-03T07:31:40.903Z,10.85
2023-01-03T07:34:08.535Z,10.63
2023-01-03T07:36:35.171Z,10.45
2023-01-03T07:39:01.954Z,10.43
2023-01-03T07:41:48.503Z,10.48
2023-01-03T07:44:15.116Z,10.48
2023-01-03T07:46:41.824Z,10.53
2023-01-03T07:49:11.934Z,10.59
2023-01-03T07:51:39.664Z,10.68
2023-01-03T07:54:07.749Z,10.80
2023-01-03T07:56:34.694Z,10.87
2023-01-03T07:59:02.153Z,10.75
2023-01-03T08:01:30.329Z,10.55
2023-01-03T08:03:57.393Z,10.64
2023-01-03T08:06:24.433Z,10.78
2023-01-03T08:09:10.403Z,10.65
2023-01-03T08:12:12.275Z,10.62
2023-01-03T08:14:38.859Z,10.73
2023-01-03T08:17:05.473Z,10.79
2023-01-03T08:19:32.086Z,10.84
2023-01-03T08:21:58.733Z,10.83
2023-01-03T08:24:25.334Z,10.86
2023-01-03T08:26:51.991Z,10.82
2023-01-03T08:29:18.622Z,10.74
2023-01-03T08:31:55.164Z,10.72
2023-01-03T08:34:29.350Z,10.53
2023-01-03T08:37:00.856Z,10.63
2023-01-03T08:39:34.368Z,10.60
2023-01-03T08:42:05.171Z,10.50
2023-01-03T08:44:32.072Z,10.48
2023-01-03T08:47:02.939Z,10.45
2023-01-03T08:49:30.792Z,10.26
2023-01-03T08:51:57.563Z,10.36
2023-01-03T08:54:24.151Z,10.34
2023-01-03T08:56:50.721Z,10.28
2023-01-03T08:59:17.376Z,10.28
2023-01-03T09:01:44.044Z,10.25
2023-01-03T09:04:10.826Z,10.22
2023-01-03T09:06:37.465Z,10.30
2023-01-03T09:09:08.436Z,10.40
2023-01-03T09:11:35.029Z,10.52
2023-01-03T09:14:01.729Z,10.64
2023-01-03T09:16:28.405Z,10.39
2023-01-03T09:18:55.131Z,10.58
2023-01-03T09:21:21.719Z,10.59
2023-01-03T09:23:48.323Z,10.51
2023-01-03T09:26:14.996Z,10.48
2023-01-03T09:28:41.641Z,10.73
2023-01-03T09:31:08.257Z,10.67
2023-01-03T09:33:35.117Z,10.69
2023-01-03T09:36:01.830Z,10.57
2023-01-03T09:38:28.540Z,10.71
2023-01-03T09:41:06.045Z,10.78
2023-01-03T09:43:41.064Z,10.78
2023-01-03T09:46:17.636Z,10.86
2023-01-03T09:48:44.626Z,10.98
2023-01-03T09:51:40.309Z,11.03
2023-01-03T09:54:31.740Z,11.08
2023-01-03T09:57:17.061Z,10.98
2023-01-03T10:00:02.485Z,11.05
2023-01-03T10:02:59.107Z,10.82
2023-01-03T10:05:37.950Z,10.98
2023-01-03T10:08:12.938Z,10.96
2023-01-03T10:10:45.469Z,11.00
2023-01-03T10:13:30.368Z,11.06
2023-01-03T10:15:57.042Z,11.10
2023-01-03T10:18:59.827Z,11.18
2023-01-03T10:21:52.148Z,11.32
2023-01-03T10:24:25.010Z,11.26
2023-01-03T10:27:03.657Z,11.28
2023-01-03T10:29:30.350Z,11.32
2023-01-03T10:32:10.781Z,11.28
2023-01-03T10:34:38.917Z,11.36
2023-01-03T10:37:25.832Z,11.53
2023-01-03T10:40:03.293Z,11.41
2023-01-03T10:42:33.059Z,11.44
2023-01-03T10:45:10.519Z,11.55
2023-01-03T10:47:37.097Z,11.51
2023-01-03T10:50:06.281Z,11.51
2023-01-03T10:52:35.766Z,11.44
2023-01-03T10:55:11.533Z,11.54
2023-01-03T10:57:46.264Z,11.62
2023-01-03T11:00:23.842Z,11.32
2023-01-03T11:02:51.169Z,11.02
2023-01-03T11:05:27.516Z,10.95
2023-01-03T11:08:05.983Z,10.88
2023-01-03T11:10:49.224Z,10.72
2023-01-03T11:13:27.638Z,10.70
2023-01-03T11:15:59.926Z,10.77
2023-01-03T11:18:29.179Z,10.76
2023-01-03T11:21:11.852Z,10.74
2023-01-03T11:24:08.849Z,10.76
2023-01-03T11:26:51.079Z,10.67
2023-01-03T11:29:35.973Z,11.01
2023-01-03T11:32:05.321Z,11.03
2023-01-03T11:38:19.230Z,10.78
2023-01-03T11:40:51.238Z,10.71
2023-01-03T11:43:48.639Z,11.04
2023-01-03T11:46:56.488Z,11.20
2023-01-03T11:49:53.720Z,10.64
2023-01-03T11:52:39.881Z,10.60
2023-01-03T11:55:44.889Z,10.70
2023-01-03T11:58:17.213Z,10.40
2023-01-03T12:00:52.735Z,10.47
2023-01-03T12:03:34.267Z,10.49
2023-01-03T12:06:13.623Z,10.74
2023-01-03T12:09:10.622Z,10.84
2023-01-03T12:11:39.925Z,10.55
2023-01-03T12:14:19.597Z,10.53
2023-01-03T12:16:56.941Z,10.70
2023-01-03T12:19:43.611Z,10.64
2023-01-03T12:22:45.340Z,10.33
2023-01-03T12:25:30.095Z,10.25
2023-01-03T12:28:11.730Z,10.09
2023-01-03T12:31:27.853Z,9.77
2023-01-03T12:34:13.032Z,9.72
2023-01-03T12:36:51.201Z,9.66
2023-01-03T12:39:55.124Z,9.94
2023-01-03T12:42:33.703Z,10.23
2023-01-03T12:45:11.971Z,9.99
2023-01-03T12:47:46.567Z,9.81
2023-01-03T12:50:13.132Z,9.65
2023-01-03T12:52:41.750Z,9.49
2023-01-03T12:55:23.466Z,9.63
2023-01-03T12:58:16.498Z,9.88
2023-01-03T13:01:24.638Z,9.93
2023-01-03T13:04:02.767Z,9.57
2023-01-03T13:06:34.997Z,9.52
2023-01-03T13:09:16.477Z,9.47
2023-01-03T13:11:47.465Z,9.57
2023-01-03T13:14:22.597Z,9.56
2023-01-03T13:16:51.048Z,9.23
2023-01-03T13:19:21.704Z,9.11
2023-01-03T13:21:54.372Z,9.06
2023-01-03T13:24:44.667Z,9.13
2023-01-03T13:27:22.952Z,9.18
2023-01-03T13:29:49.560Z,9.52
2023-01-03T13:32:20.429Z,9.99
2023-01-03T13:34:59.031Z,10.26
2023-01-03T13:37:43.824Z,10.46
2023-01-03T13:40:13.442Z,10.53
2023-01-03T13:42:40.745Z,10.61
2023-01-03T13:45:17.392Z,10.73
2023-01-03T13:47:52.831Z,10.75
2023-01-03T13:50:19.749Z,10.77
2023-01-03T13:53:04.557Z,10.83
2023-01-03T13:55:54.305Z,10.82
2023-01-03T13:58:24.719Z,10.89
2023-01-03T14:00:52.040Z,10.79
2023-01-03T14:04:08.356Z,10.85
2023-01-03T14:06:56.580Z,10.87
2023-01-03T14:09:32.359Z,10.86
2023-01-03T14:12:36.032Z,11.03
2023-01-03T14:15:26.361Z,10.92
2023-01-03T14:17:59.903Z,10.89
2023-01-03T14:20:31.073Z,10.98
2023-01-03T14:23:17.068Z,10.87
2023-01-03T14:25:50.098Z,10.94
2023-01-03T14:28:19.183Z,10.92
2023-01-03T14:30:50.391Z,11.03
2023-01-03T14:33:18.821Z,11.04
2023-01-03T14:35:46.159Z,11.07
2023-01-03T14:38:36.061Z,11.00
2023-01-03T14:41:03.501Z,10.89
2023-01-03T14:43:32.699Z,10.37
2023-01-03T14:46:06.751Z,10.08
2023-01-03T14:48:33.647Z,10.48
2023-01-03T14:51:02.699Z,10.65
2023-01-03T14:53:31.576Z,10.80
2023-01-03T14:55:58.844Z,10.82
2023-01-03T14:58:47.168Z,10.78
2023-01-03T15:01:15.385Z,10.69
2023-01-03T15:03:45.182Z,10.81
2023-01-03T15:06:33.073Z,10.94
2023-01-03T15:09:12.603Z,10.86
2023-01-03T15:11:57.133Z,10.74
2023-01-03T15:14:32.075Z,10.49
2023-01-03T15:17:10.216Z,9.98
2023-01-03T15:19:40.777Z,9.83
2023-01-03T15:22:13.902Z,9.73
2023-01-03T15:24:44.328Z,9.59
2023-01-03T15:27:38.669Z,9.25
2023-01-03T15:30:15.177Z,9.04
2023-01-03T15:33:06.008Z,8.62
2023-01-03T15:35:43.126Z,8.27
2023-01-03T15:38:36.451Z,8.43
2023-01-03T15:42:12.293Z,9.04
2023-01-03T15:44:37.825Z,9.48
2023-01-03T15:47:08.602Z,9.57
2023-01-03T15:49:42.074Z,9.64
2023-01-03T15:52:13.331Z,9.58
2023-01-03T15:54:41.876Z,9.68
2023-01-03T15:57:17.580Z,9.60
2023-01-03T15:59:44.326Z,9.70
2023-01-03T16:02:16.907Z,9.74
2023-01-03T16:04:45.533Z,9.87
2023-01-03T16:07:13.049Z,9.94
2023-01-03T16:09:40.154Z,9.88
2023-01-03T16:12:13.326Z,9.92
2023-01-03T16:14:41.242Z,10.24
2023-01-03T16:17:11.676Z,10.03
2023-01-03T16:19:38.294Z,10.03
2023-01-03T16:24:52.723Z,10.23
2023-01-03T16:27:21.996Z,10.20
2023-01-03T16:29:48.871Z,10.26
2023-01-03T16:32:28.139Z,10.34
2023-01-03T16:35:03.410Z,10.33
2023-01-03T16:37:30.136Z,10.26
2023-01-03T16:39:58.340Z,10.32
2023-01-03T16:42:28.030Z,10.32
2023-01-03T16:44:55.374Z,10.29
2023-01-03T16:47:33.079Z,10.26
2023-01-03T16:50:04.068Z,10.31
2023-01-03T16:52:36.635Z,10.35
2023-01-03T16:55:13.142Z,10.24
2023-01-03T16:57:39.789Z,10.17
2023-01-03T17:00:18.320Z,10.17
2023-01-03T17:02:45.186Z,10.22
2023-01-03T17:05:12.201Z,10.20
2023-01-03T17:07:39.562Z,10.20
2023-01-03T17:10:07.322Z,10.28
2023-01-03T17:12:34.193Z,10.19
2023-01-03T17:15:00.867Z,10.24
2023-01-03T17:17:27.428Z,10.23
2023-01-03T17:20:04.073Z,10.15
2023-01-03T17:22:32.333Z,10.21
2023-01-03T17:24:59.062Z,10.20
2023-01-03T17:27:32.013Z,10.21
2023-01-03T17:30:06.852Z,10.22
2023-01-03T17:32:34.127Z,10.22
2023-01-03T17:35:00.874Z,10.22
2023-01-03T17:37:27.470Z,10.21
2023-01-03T17:39:57.417Z,10.22
2023-01-03T17:42:25.650Z,10.20
2023-01-03T17:45:12.417Z,10.19
2023-01-03T17:47:59.521Z,10.10
2023-01-03T17:50:29.328Z,10.17
2023-01-03T17:52:56.671Z,10.13
2023-01-03T17:55:26.562Z,10.10
2023-01-03T17:57:54.192Z,10.03
2023-01-03T18:00:24.850Z,10.04
2023-01-03T18:02:52.539Z,10.08
2023-01-03T18:05:27.128Z,9.78
2023-01-03T18:08:00.078Z,9.30
2023-01-03T18:10:46.174Z,9.51
2023-01-03T18:13:34.381Z,9.53
2023-01-03T18:16:01.082Z,9.59
2023-01-03T18:18:28.713Z,9.63
2023-01-03T18:20:55.972Z,9.68
2023-01-03T18:23:32.122Z,9.65
2023-01-03T18:26:03.166Z,9.53
2023-01-03T18:28:30.211Z,9.66
2023-01-03T18:30:57.395Z,9.70
2023-01-03T18:33:24.829Z,9.73
2023-01-03T18:35:52.517Z,9.73
2023-01-03T18:38:28.061Z,9.66
2023-01-03T18:41:00.733Z,9.64
2023-01-03T18:43:31.756Z,9.63
2023-01-03T18:45:58.475Z,9.61
2023-01-03T18:48:25.170Z,9.67
2023-01-03T18:50:58.459Z,9.64
2023-01-03T18:53:31.248Z,9.55
2023-01-03T18:55:58.410Z,9.63
2023-01-03T18:58:34.018Z,9.68
2023-01-03T19:01:00.909Z,9.68
2023-01-03T19:03:30.656Z,9.65
2023-01-03T19:05:59.722Z,9.55
2023-01-03T19:08:30.777Z,9.61
2023-01-03T19:11:23.849Z,9.62
2023-01-03T19:13:54.943Z,9.34
2023-01-03T19:16:27.789Z,9.38
2023-01-03T19:18:54.908Z,9.49
2023-01-03T19:21:23.363Z,9.52
2023-01-03T19:24:23.864Z,9.67
2023-01-03T19:27:10.985Z,9.67
2023-01-03T19:29:38.330Z,9.43
2023-01-03T19:32:12.783Z,9.43
2023-01-03T19:34:39.417Z,9.47
2023-01-03T19:37:06.064Z,9.33
2023-01-03T19:39:37.461Z,9.34
2023-01-03T19:42:24.630Z,9.30
2023-01-03T19:44:52.982Z,9.40
2023-01-03T19:47:22.884Z,9.44
2023-01-03T19:49:49.516Z,9.51
2023-01-03T19:52:17.534Z,9.55
2023-01-03T19:54:44.809Z,9.56
2023-01-03T19:57:24.008Z,9.61
2023-01-03T19:59:56.827Z,9.57
2023-01-03T20:02:32.937Z,9.63
2023-01-03T20:05:00.553Z,9.57
2023-01-03T20:07:27.380Z,9.53
2023-01-03T20:09:53.993Z,9.32
2023-01-03T20:12:26.083Z,9.34
2023-01-03T20:15:00.034Z,9.25
2023-01-03T20:17:31.139Z,9.25
2023-01-03T20:19:57.740Z,9.30
2023-01-03T20:23:02.443Z,9.29
2023-01-03T20:25:23.426Z,9.36
2023-01-03T20:27:50.930Z,9.28
2023-01-03T20:30:19.575Z,9.23
2023-01-03T20:32:46.207Z,9.06
2023-01-03T20:36:08.404Z,9.08
2023-01-03T20:38:06.750Z,8.90
2023-01-03T20:40:33.399Z,8.78
2023-01-03T20:43:02.357Z,8.63
2023-01-03T20:45:30.030Z,8.82
2023-01-03T20:47:56.647Z,8.79
2023-01-03T20:50:27.724Z,8.75
2023-01-03T20:52:55.061Z,8.59
2023-01-03T20:55:23.795Z,8.41
2023-01-03T20:57:51.029Z,8.54
2023-01-03T21:00:25.737Z,8.64
2023-01-03T21:02:53.064Z,8.55
2023-01-03T21:05:20.144Z,8.58
2023-01-03T21:08:05.635Z,8.30
2023-01-03T21:10:37.891Z,8.34
2023-01-03T21:13:04.951Z,8.33
2023-01-03T21:15:32.248Z,8.23
2023-01-03T21:17:59.137Z,8.27
2023-01-03T21:20:27.937Z,8.20
2023-01-03T21:22:54.552Z,8.35
2023-01-03T21:25:32.992Z,8.35
2023-01-03T21:28:01.521Z,8.28
2023-01-03T21:30:30.867Z,8.20
2023-01-03T21:32:59.497Z,8.12
2023-01-03T21:35:26.593Z,8.19
2023-01-03T21:37:54.507Z,8.27
2023-01-03T21:40:24.564Z,8.29
2023-01-03T21:43:03.560Z,8.24
2023-01-03T21:45:30.972Z,8.00
2023-01-03T21:47:57.993Z,8.03
2023-01-03T21:50:25.366Z,8.11
2023-01-03T21:52:52.866Z,8.19
2023-01-03T21:55:20.628Z,8.25
2023-01-03T21:57:47.268Z,8.29
2023-01-03T22:00:14.806Z,8.32
2023-01-03T22:03:01.125Z,8.34
2023-01-03T22:05:29.043Z,8.31
2023-01-03T22:07:55.949Z,8.35
2023-01-03T22:10:23.867Z,8.37
2023-01-03T22:13:02.662Z,8.45
2023-01-03T22:15:29.288Z,8.46
2023-01-03T22:17:56.127Z,8.25
2023-01-03T22:20:25.616Z,8.09
2023-01-03T22:22:53.089Z,7.69
2023-01-03T22:25:22.841Z,7.89
2023-01-03T22:27:50.119Z,8.02
2023-01-03T22:30:19.176Z,8.03
2023-01-03T22:32:46.933Z,8.15
2023-01-03T22:35:15.742Z,8.18
2023-01-03T22:37:42.672Z,8.19
2023-01-03T22:40:12.679Z,8.23
2023-01-03T22:42:39.437Z,8.18
2023-01-03T22:45:07.352Z,7.97
2023-01-03T22:47:36.558Z,8.05
2023-01-03T22:50:04.667Z,8.16
2023-01-03T22:52:31.304Z,8.22
2023-01-03T22:54:58.077Z,8.33
2023-01-03T22:57:24.739Z,8.20
2023-01-03T22:59:51.553Z,8.19
2023-01-03T23:02:19.265Z,8.11
2023-01-03T23:04:47.500Z,8.14
2023-01-03T23:07:14.152Z,8.28
2023-01-03T23:09:40.714Z,8.33
2023-01-03T23:12:26.065Z,8.35
2023-01-03T23:14:52.645Z,8.38
2023-01-03T23:17:37.551Z,8.42
2023-01-03T23:20:04.552Z,8.20
2023-01-03T23:22:31.224Z,7.88
2023-01-03T23:24:58.139Z,8.15
2023-01-03T23:27:27.386Z,8.11
2023-01-03T23:29:55.072Z,8.17
2023-01-03T23:32:21.673Z,8.23
2023-01-03T23:34:48.560Z,8.30
2023-01-03T23:37:15.251Z,8.22
2023-01-03T23:39:43.081Z,8.20
2023-01-03T23:42:10.035Z,8.28
2023-01-03T23:44:36.751Z,8.08
2023-01-03T23:47:09.273Z,8.12
2023-01-03T23:49:38.283Z,8.16
2023-01-03T23:52:04.955Z,8.04
2023-01-03T23:54:31.522Z,8.11
2023-01-03T23:56:58.115Z,8.25
2023-01-03T23:59:24.760Z,8.27
